Time;durP1;ratioP1;P1;durP2;ratioP2;P2;SDS_P1;SDS_P2;PMS_P1;PMS_P2;Temp;Humidity;BMP_temperature;BMP_pressure;BME280_temperature;BME280_humidity;BME280_pressure;Samples;Min_cycle;Max_cycle;Signal;HPM_P1;HPM_P2
2022/06/05 00:00:59;;;;;;;;;17.67;17.67;;;;;-143.57;100.00;65101.44;5078330;28;45339;-53
2022/06/05 00:03:41;;;;;;;;;18.67;18.67;;;;;-143.57;100.00;65101.44;5078515;28;45379;-52
2022/06/05 00:06:52;;;;;;;;;22.00;18.00;;;;;-143.57;100.00;65101.44;5077948;28;45193;-57
2022/06/05 00:09:46;;;;;;;;;18.00;16.67;;;;;-143.57;100.00;65101.44;5073554;27;45257;-53
2022/06/05 00:12:16;;;;;;;;;18.33;16.67;;;;;-143.57;100.00;65101.44;5078364;28;45411;-54
2022/06/05 00:14:43;;;;;;;;;16.00;14.75;;;;;-143.57;100.00;65101.44;5078025;28;45405;-55
2022/06/05 00:17:14;;;;;;;;;23.33;16.00;;;;;-143.57;100.00;65101.44;5077642;27;46231;-57
2022/06/05 00:19:41;;;;;;;;;17.33;15.00;;;;;-143.57;100.00;65101.44;5077775;27;45367;-54
2022/06/05 00:22:07;;;;;;;;;19.50;15.25;;;;;-143.57;100.00;65101.44;5078104;28;45297;-57
2022/06/05 00:24:33;;;;;;;;;15.67;15.67;;;;;-143.57;100.00;65101.44;5078071;28;45375;-54
2022/06/05 00:27:38;;;;;;;;;20.00;16.00;;;;;-143.57;100.00;65101.44;5077545;28;45475;-51
2022/06/05 00:30:24;;;;;;;;;15.75;13.25;;;;;-143.57;100.00;65101.44;5034926;28;45376;-53
2022/06/05 00:33:05;;;;;;;;;19.25;15.50;;;;;-143.57;100.00;65101.44;5034891;28;45539;-53
2022/06/05 00:35:40;;;;;;;;;15.67;15.67;;;;;-143.57;100.00;65101.44;5035322;28;45220;-54
2022/06/05 00:38:12;;;;;;;;;19.75;15.25;;;;;-143.57;100.00;65101.44;5033957;28;46193;-54
2022/06/05 00:41:05;;;;;;;;;19.75;13.00;;;;;-143.57;100.00;65101.44;5034801;28;45462;-52
2022/06/05 00:43:30;;;;;;;;;15.67;13.00;;;;;-143.57;100.00;65101.44;5034799;28;45336;-54
2022/06/05 00:45:57;;;;;;;;;15.00;14.50;;;;;-143.57;100.00;65101.44;5035186;28;45402;-55
2022/06/05 00:48:23;;;;;;;;;13.75;13.75;;;;;-143.57;100.00;65101.44;5034499;28;46834;-54
2022/06/05 00:50:49;;;;;;;;;15.25;12.25;;;;;-143.57;100.00;65101.44;5034805;28;45435;-54
2022/06/05 00:53:15;;;;;;;;;12.75;11.75;;;;;-143.57;100.00;65101.44;5034718;28;45486;-54
2022/06/05 00:55:44;;;;;;;;;14.00;12.50;;;;;-143.57;100.00;65101.44;5035148;28;45336;-57
2022/06/05 00:58:10;;;;;;;;;13.50;13.00;;;;;-143.57;100.00;65101.44;5034325;28;45399;-53
2022/06/05 01:00:40;;;;;;;;;12.75;9.75;;;;;-143.57;100.00;65101.44;5034598;28;45507;-58
2022/06/05 01:03:09;;;;;;;;;11.25;10.00;;;;;-143.57;100.00;65101.44;5034888;28;45433;-56
2022/06/05 01:05:35;;;;;;;;;13.50;10.75;;;;;-143.57;100.00;65101.44;5034845;28;45642;-53
2022/06/05 01:08:00;;;;;;;;;11.00;8.00;;;;;-143.57;100.00;65101.44;5076670;28;47089;-54
2022/06/05 01:10:33;;;;;;;;;12.25;8.50;;;;;-143.57;100.00;65101.44;5077139;28;45423;-55
2022/06/05 01:13:11;;;;;;;;;8.75;8.25;;;;;-143.57;100.00;65101.44;5077255;28;45305;-52
2022/06/05 01:16:02;;;;;;;;;9.25;9.25;;;;;-143.57;100.00;65101.44;5077392;28;45328;-54
2022/06/05 01:18:36;;;;;;;;;11.75;8.00;;;;;-143.57;100.00;65101.44;5076750;27;47168;-52
2022/06/05 01:21:33;;;;;;;;;12.00;9.00;;;;;-143.57;100.00;65101.44;5076992;28;45406;-52
2022/06/05 01:24:29;;;;;;;;;8.25;8.25;;;;;-143.57;100.00;65101.44;5073757;27;45673;-55
2022/06/05 01:27:02;;;;;;;;;7.25;7.00;;;;;-143.57;100.00;65101.44;5076770;28;45450;-53
2022/06/05 01:29:45;;;;;;;;;8.25;8.00;;;;;-143.57;100.00;65101.44;5076784;28;46222;-57
2022/06/05 01:32:20;;;;;;;;;10.00;9.75;;;;;-143.57;100.00;65101.44;5076815;27;45386;-52
2022/06/05 01:34:54;;;;;;;;;7.00;6.75;;;;;-143.57;100.00;65101.44;5076908;28;45376;-54
2022/06/05 01:37:25;;;;;;;;;9.50;7.75;;;;;-143.57;100.00;65101.44;5076999;28;45327;-53
2022/06/05 01:40:13;;;;;;;;;10.50;8.25;;;;;-143.57;100.00;65101.44;5076640;28;47264;-56
2022/06/05 01:42:43;;;;;;;;;7.00;7.00;;;;;-143.57;100.00;65101.44;5076647;28;45486;-52
2022/06/05 01:45:23;;;;;;;;;9.00;8.00;;;;;-143.57;100.00;65101.44;5076881;28;45185;-55
2022/06/05 01:47:53;;;;;;;;;8.75;7.75;;;;;-143.57;100.00;65101.44;5077238;28;45327;-54
2022/06/05 01:50:42;;;;;;;;;10.00;7.25;;;;;-143.57;100.00;65101.44;5076663;28;46131;-52
2022/06/05 01:53:14;;;;;;;;;8.50;6.50;;;;;-143.57;100.00;65101.44;5076833;28;45415;-53
2022/06/05 01:55:47;;;;;;;;;10.50;7.75;;;;;-143.57;100.00;65101.44;5080337;28;45259;-54
2022/06/05 01:58:17;;;;;;;;;9.25;8.00;;;;;-143.57;100.00;65101.44;5080440;28;45317;-55
2022/06/05 02:00:48;;;;;;;;;10.00;8.50;;;;;-143.57;100.00;65101.44;5080090;27;45417;-54
2022/06/05 02:03:25;;;;;;;;;9.25;9.25;;;;;-143.57;100.00;65101.44;5079161;28;45374;-52
2022/06/05 02:05:57;;;;;;;;;12.50;10.00;;;;;-143.57;100.00;65101.44;5080044;28;45320;-52
2022/06/05 02:08:32;;;;;;;;;8.00;8.00;;;;;-143.57;100.00;65101.44;5080346;28;45367;-58
2022/06/05 02:11:00;;;;;;;;;10.25;10.00;;;;;-143.57;100.00;65101.44;5079657;27;47311;-54
2022/06/05 02:13:26;;;;;;;;;9.00;9.00;;;;;-143.57;100.00;65101.44;5079857;27;45363;-56
2022/06/05 02:15:52;;;;;;;;;13.25;9.00;;;;;-143.57;100.00;65101.44;5080211;27;45485;-54
2022/06/05 02:18:18;;;;;;;;;11.00;8.00;;;;;-143.57;100.00;65101.44;5079825;27;45489;-54
2022/06/05 02:20:44;;;;;;;;;12.75;10.25;;;;;-143.57;100.00;65101.44;5079722;28;46535;-55
2022/06/05 02:23:17;;;;;;;;;12.50;11.00;;;;;-143.57;100.00;65101.44;5079722;28;45339;-52
2022/06/05 02:25:43;;;;;;;;;14.67;11.67;;;;;-143.57;100.00;65101.44;5079331;27;45434;-51
2022/06/05 02:28:13;;;;;;;;;14.33;13.67;;;;;-143.57;100.00;65101.44;5079820;28;45307;-55
2022/06/05 02:31:00;;;;;;;;;13.50;13.50;;;;;-143.57;100.00;65101.44;5079774;27;45346;-58
2022/06/05 02:33:33;;;;;;;;;15.00;13.25;;;;;-143.57;100.00;65101.44;5079551;27;45360;-54
2022/06/05 02:36:36;;;;;;;;;18.33;12.33;;;;;-143.57;100.00;65101.44;5079547;27;45278;-54
2022/06/05 02:39:01;;;;;;;;;19.00;14.33;;;;;-143.57;100.00;65101.44;5079701;28;45432;-52
2022/06/05 02:41:35;;;;;;;;;15.00;14.00;;;;;-143.57;100.00;65101.44;5079269;28;47319;-56
2022/06/05 02:44:31;;;;;;;;;15.67;13.00;;;;;-143.57;100.00;65101.44;5079252;28;45431;-54
2022/06/05 02:47:17;;;;;;;;;16.33;11.00;;;;;-143.57;100.00;65101.44;5079333;28;45280;-53
2022/06/05 02:49:51;;;;;;;;;14.00;12.67;;;;;-143.57;100.00;65101.44;5079658;28;45472;-58
2022/06/05 02:52:18;;;;;;;;;16.67;13.67;;;;;-143.57;100.00;65101.44;5079145;27;47141;-54
2022/06/05 02:55:12;;;;;;;;;14.00;12.33;;;;;-143.57;100.00;65101.44;5079329;28;45395;-57
2022/06/05 02:57:38;;;;;;;;;20.33;13.33;;;;;-143.57;100.00;65101.44;5075145;27;45330;-51
2022/06/05 03:00:08;;;;;;;;;19.00;16.67;;;;;-143.57;100.00;65101.44;5079396;28;45213;-52
2022/06/05 03:05:17;;;;;;;;;16.00;16.00;;;;;-143.57;100.00;65101.44;5078922;27;45295;-54
2022/06/05 03:07:43;;;;;;;;;16.67;15.00;;;;;-143.57;100.00;65101.44;5079364;27;45361;-54
2022/06/05 03:10:09;;;;;;;;;20.67;15.67;;;;;-143.57;100.00;65101.44;5079437;27;45352;-53
2022/06/05 03:12:34;;;;;;;;;15.33;15.33;;;;;-143.57;100.00;65101.44;5078788;28;46342;-55
2022/06/05 03:15:01;;;;;;;;;11.75;11.25;;;;;-143.57;100.00;65101.44;5078975;27;45269;-54
2022/06/05 03:17:29;;;;;;;;;14.00;13.00;;;;;-143.57;100.00;65101.44;5079127;28;45238;-57
2022/06/05 03:19:55;;;;;;;;;14.33;14.00;;;;;-143.57;100.00;65101.44;5079584;27;45209;-52
2022/06/05 03:22:20;;;;;;;;;14.00;13.00;;;;;-143.57;100.00;65101.44;5078991;28;45447;-59
2022/06/05 03:24:46;;;;;;;;;15.00;12.00;;;;;-143.57;100.00;65101.44;5078586;27;45360;-57
2022/06/05 03:27:11;;;;;;;;;14.33;11.00;;;;;-143.57;100.00;65101.44;5078781;28;45840;-55
2022/06/05 03:29:36;;;;;;;;;16.00;13.33;;;;;-143.57;100.00;65101.44;5079126;28;45342;-52
2022/06/05 03:32:02;;;;;;;;;14.33;11.67;;;;;-143.57;100.00;65101.44;5078538;28;47346;-54
2022/06/05 03:34:27;;;;;;;;;13.33;12.33;;;;;-143.57;100.00;65101.44;5078853;28;45331;-55
2022/06/05 03:36:53;;;;;;;;;14.25;12.25;;;;;-143.57;100.00;65101.44;5078904;28;45355;-55
2022/06/05 03:39:18;;;;;;;;;10.50;10.50;;;;;-143.57;100.00;65101.44;5078896;28;45307;-56
2022/06/05 03:41:43;;;;;;;;;14.33;12.00;;;;;-143.57;100.00;65101.44;5078566;28;47018;-56
2022/06/05 03:44:10;;;;;;;;;9.67;8.67;;;;;-143.57;100.00;65101.44;5078332;27;45389;-56
2022/06/05 03:46:38;;;;;;;;;11.25;9.75;;;;;-143.57;100.00;65101.44;5078249;28;45316;-54
2022/06/05 03:49:03;;;;;;;;;11.67;11.67;;;;;-143.57;100.00;65101.44;5078715;27;45292;-55
2022/06/05 03:51:28;;;;;;;;;18.67;15.67;;;;;-143.57;100.00;65101.44;5060053;28;46478;-53
2022/06/05 03:53:54;;;;;;;;;15.00;13.33;;;;;-143.57;100.00;65101.44;5078617;28;45228;-54
2022/06/05 03:56:22;;;;;;;;;16.33;14.00;;;;;-143.57;100.00;65101.44;5078343;28;45273;-55
2022/06/05 03:58:49;;;;;;;;;12.33;11.33;;;;;-143.57;100.00;65101.44;5078530;27;45351;-55
2022/06/05 04:01:17;;;;;;;;;15.00;11.33;;;;;-143.57;100.00;65101.44;5077728;28;45461;-55
2022/06/05 04:03:43;;;;;;;;;14.33;11.00;;;;;-143.57;100.00;65101.44;5078136;28;45279;-52
2022/06/05 04:06:11;;;;;;;;;14.67;12.67;;;;;-143.57;100.00;65101.44;5078431;28;45345;-54
2022/06/05 04:08:38;;;;;;;;;10.33;10.33;;;;;-143.57;100.00;65101.44;5078375;28;45609;-53
2022/06/05 04:11:09;;;;;;;;;17.00;13.00;;;;;-143.57;100.00;65101.44;5078143;27;45383;-53
2022/06/05 04:13:34;;;;;;;;;14.00;11.33;;;;;-143.57;100.00;65101.44;5076805;27;45363;-54
2022/06/05 04:16:01;;;;;;;;;14.33;12.33;;;;;-143.57;100.00;65101.44;5077512;28;45411;-55
2022/06/05 04:18:26;;;;;;;;;14.67;13.33;;;;;-143.57;100.00;65101.44;5078003;27;45530;-55
2022/06/05 04:20:52;;;;;;;;;14.00;13.67;;;;;-143.57;100.00;65101.44;5077058;27;45402;-57
2022/06/05 04:23:17;;;;;;;;;15.00;11.33;;;;;-143.57;100.00;65101.44;5077992;28;45481;-53
2022/06/05 04:25:44;;;;;;;;;15.67;11.00;;;;;-143.57;100.00;65101.44;5078020;27;45410;-57
2022/06/05 04:28:11;;;;;;;;;18.00;12.50;;;;;-143.57;100.00;65101.44;5078123;27;45434;-55
2022/06/05 04:30:38;;;;;;;;;13.75;11.50;;;;;-143.57;100.00;65101.44;5077823;27;45419;-54
2022/06/05 04:33:04;;;;;;;;;19.00;13.33;;;;;-143.57;100.00;65101.44;5076978;28;45190;-58
2022/06/05 04:35:29;;;;;;;;;13.33;12.33;;;;;-143.57;100.00;65101.44;5077877;27;45527;-53
2022/06/05 04:37:55;;;;;;;;;11.67;11.33;;;;;-143.57;100.00;65101.44;5078113;28;45376;-58
2022/06/05 04:40:20;;;;;;;;;13.67;13.00;;;;;-143.57;100.00;65101.44;5077525;27;46168;-54
2022/06/05 04:42:46;;;;;;;;;11.67;11.67;;;;;-143.57;100.00;65101.44;5077619;28;45299;-55
2022/06/05 04:45:11;;;;;;;;;10.25;10.25;;;;;-143.57;100.00;65101.44;5077848;28;45306;-56
2022/06/05 04:47:36;;;;;;;;;16.67;12.67;;;;;-143.57;100.00;65101.44;5077954;28;45428;-53
2022/06/05 04:50:02;;;;;;;;;13.00;13.00;;;;;-143.57;100.00;65101.44;5077589;28;45993;-53
2022/06/05 04:52:28;;;;;;;;;12.50;11.50;;;;;-143.57;100.00;65101.44;5077578;28;45465;-55
2022/06/05 04:54:53;;;;;;;;;17.67;15.33;;;;;-143.57;100.00;65101.44;5077603;28;45402;-55
2022/06/05 04:57:19;;;;;;;;;16.67;12.67;;;;;-143.57;100.00;65101.44;5077712;28;45406;-51
2022/06/05 04:59:44;;;;;;;;;13.00;12.33;;;;;-143.57;100.00;65101.44;5077138;27;46186;-53
2022/06/05 05:02:09;;;;;;;;;13.00;11.00;;;;;-143.57;100.00;65101.44;5077532;28;45410;-55
2022/06/05 05:04:35;;;;;;;;;11.75;11.00;;;;;-143.57;100.00;65101.44;5077267;28;45323;-52
2022/06/05 05:07:00;;;;;;;;;11.67;11.67;;;;;-143.57;100.00;65101.44;5077564;28;45295;-53
2022/06/05 05:09:26;;;;;;;;;15.00;15.00;;;;;-143.57;100.00;65101.44;5077197;28;46281;-56
2022/06/05 05:11:51;;;;;;;;;13.50;11.00;;;;;-143.57;100.00;65101.44;5077100;27;45349;-55
2022/06/05 05:14:16;;;;;;;;;12.00;11.50;;;;;-143.57;100.00;65101.44;5077080;28;45454;-54
2022/06/05 05:16:42;;;;;;;;;10.50;10.50;;;;;-143.57;100.00;65101.44;5077176;27;45295;-52
2022/06/05 05:19:08;;;;;;;;;16.75;11.75;;;;;-143.57;100.00;65101.44;5092594;27;46122;-56
2022/06/05 05:21:34;;;;;;;;;14.00;11.75;;;;;-143.57;100.00;65101.44;5077069;28;45252;-56
2022/06/05 05:24:00;;;;;;;;;16.75;12.50;;;;;-143.57;100.00;65101.44;5076980;28;45257;-53
2022/06/05 05:26:29;;;;;;;;;12.75;12.75;;;;;-143.57;100.00;65101.44;5077139;27;45458;-54
2022/06/05 05:28:55;;;;;;;;;17.25;12.00;;;;;-143.57;100.00;65101.44;5078062;28;45455;-53
2022/06/05 05:31:26;;;;;;;;;11.50;11.00;;;;;-143.57;100.00;65101.44;5080565;28;45418;-53
2022/06/05 05:33:53;;;;;;;;;11.75;10.50;;;;;-143.57;100.00;65101.44;5080661;27;45609;-55
2022/06/05 05:36:20;;;;;;;;;14.50;12.50;;;;;-143.57;100.00;65101.44;5080671;27;45545;-53
2022/06/05 05:44:16;;;;;;;;;10.50;7.75;;;;;-143.57;100.00;65101.44;5080368;27;45419;-54
2022/06/05 05:46:42;;;;;;;;;14.50;12.75;;;;;-143.57;100.00;65101.44;5080697;27;45390;-52
2022/06/05 05:49:09;;;;;;;;;12.50;12.25;;;;;-143.57;100.00;65101.44;5080075;27;45928;-54
2022/06/05 05:51:36;;;;;;;;;11.00;11.00;;;;;-143.57;100.00;65101.44;5080248;27;45543;-53
2022/06/05 05:54:03;;;;;;;;;15.00;13.00;;;;;-143.57;100.00;65101.44;5080368;27;45261;-58
2022/06/05 05:56:28;;;;;;;;;13.25;12.00;;;;;-143.57;100.00;65101.44;5080430;28;45698;-53
2022/06/05 05:58:53;;;;;;;;;10.75;10.25;;;;;-143.57;100.00;65101.44;5079982;27;46057;-54
2022/06/05 06:01:19;;;;;;;;;15.00;14.00;;;;;-143.57;100.00;65101.44;5080056;28;45331;-53
2022/06/05 06:03:44;;;;;;;;;12.00;11.00;;;;;-143.57;100.00;65101.44;5080170;27;45420;-53
2022/06/05 06:06:10;;;;;;;;;13.00;12.00;;;;;-143.57;100.00;65101.44;5080302;28;45478;-53
2022/06/05 06:08:35;;;;;;;;;15.75;12.75;;;;;-143.57;100.00;65101.44;5080062;27;45458;-56
2022/06/05 06:11:00;;;;;;;;;13.25;11.50;;;;;-143.57;100.00;65101.44;5079954;28;45386;-54
2022/06/05 06:13:26;;;;;;;;;11.75;10.00;;;;;-143.57;100.00;65101.44;5080046;28;45269;-56
2022/06/05 06:15:51;;;;;;;;;10.00;10.00;;;;;-143.57;100.00;65101.44;5061867;28;45418;-53
2022/06/05 06:18:17;;;;;;;;;12.25;11.50;;;;;-143.57;100.00;65101.44;5079692;28;45276;-56
2022/06/05 06:20:44;;;;;;;;;14.75;11.00;;;;;-143.57;100.00;65101.44;5079846;27;45491;-52
2022/06/05 06:23:10;;;;;;;;;10.25;10.25;;;;;-143.57;100.00;65101.44;5079897;28;45367;-52
2022/06/05 06:25:37;;;;;;;;;10.25;10.25;;;;;-143.57;100.00;65101.44;5079885;27;45222;-55
2022/06/05 06:28:03;;;;;;;;;15.50;12.00;;;;;-143.57;100.00;65101.44;5079762;27;46953;-54
2022/06/05 06:30:28;;;;;;;;;11.75;11.75;;;;;-143.57;100.00;65101.44;5079587;27;45461;-55
2022/06/05 06:32:54;;;;;;;;;13.50;11.50;;;;;-143.57;100.00;65101.44;5078571;28;45355;-52
2022/06/05 06:35:20;;;;;;;;;9.75;9.75;;;;;-143.57;100.00;65101.44;5079991;28;45379;-54
2022/06/05 06:37:45;;;;;;;;;12.50;9.50;;;;;-143.57;100.00;65101.44;5079555;27;45334;-55
2022/06/05 06:40:11;;;;;;;;;12.50;12.00;;;;;-143.57;100.00;65101.44;5079135;28;45372;-58
2022/06/05 06:42:36;;;;;;;;;13.00;11.75;;;;;-143.57;100.00;65101.44;5079795;28;45360;-54
2022/06/05 06:45:02;;;;;;;;;11.50;11.25;;;;;-143.57;100.00;65101.44;5079316;27;45379;-55
2022/06/05 06:47:27;;;;;;;;;14.75;10.75;;;;;-143.57;100.00;65101.44;5079668;28;45289;-54
2022/06/05 06:49:52;;;;;;;;;9.75;9.00;;;;;-143.57;100.00;65101.44;5079342;28;45256;-54
2022/06/05 06:52:18;;;;;;;;;9.00;9.00;;;;;-143.57;100.00;65101.44;5079386;27;45595;-54
2022/06/05 06:54:43;;;;;;;;;9.00;9.00;;;;;-143.57;100.00;65101.44;5079740;27;45324;-53
2022/06/05 06:57:09;;;;;;;;;8.50;8.50;;;;;-143.57;100.00;65101.44;5079087;27;46910;-54
2022/06/05 06:59:35;;;;;;;;;9.50;7.50;;;;;-143.57;100.00;65101.44;5079435;27;45283;-55
2022/06/05 07:02:00;;;;;;;;;9.75;8.50;;;;;-143.57;100.00;65101.44;5079404;28;45432;-52
2022/06/05 07:04:26;;;;;;;;;6.75;6.75;;;;;-143.57;100.00;65101.44;5079211;28;45218;-53
2022/06/05 07:06:51;;;;;;;;;8.25;8.25;;;;;-143.57;100.00;65101.44;5079213;28;45209;-57
2022/06/05 07:09:17;;;;;;;;;6.75;6.75;;;;;-143.57;100.00;65101.44;5079209;28;45340;-58
2022/06/05 07:11:43;;;;;;;;;8.60;8.60;;;;;-143.57;100.00;65101.44;5060954;28;45501;-53
2022/06/05 07:14:09;;;;;;;;;8.00;8.00;;;;;-143.57;100.00;65101.44;5079235;28;45321;-54
2022/06/05 07:16:36;;;;;;;;;8.00;8.00;;;;;-143.57;100.00;65101.44;5078670;28;47296;-55
2022/06/05 07:19:01;;;;;;;;;6.60;6.60;;;;;-143.57;100.00;65101.44;5078982;28;45583;-57
2022/06/05 07:21:27;;;;;;;;;7.00;7.00;;;;;-143.57;100.00;65101.44;5079048;28;45281;-54
2022/06/05 07:23:54;;;;;;;;;8.25;6.75;;;;;-143.57;100.00;65101.44;5079086;28;45421;-55
2022/06/05 07:26:21;;;;;;;;;6.60;6.20;;;;;-143.57;100.00;65101.44;5078802;28;46244;-55
2022/06/05 07:28:47;;;;;;;;;8.00;6.80;;;;;-143.57;100.00;65101.44;5078888;28;45312;-59
2022/06/05 07:31:14;;;;;;;;;6.25;6.25;;;;;-143.57;100.00;65101.44;5078950;28;45410;-55
2022/06/05 07:33:41;;;;;;;;;6.80;6.80;;;;;-143.57;100.00;65101.44;5079269;27;45442;-56
2022/06/05 07:36:10;;;;;;;;;10.20;6.80;;;;;-143.57;100.00;65101.44;5078596;28;46384;-54
2022/06/05 07:38:35;;;;;;;;;7.00;7.00;;;;;-143.57;100.00;65101.44;5078893;27;45371;-54
2022/06/05 07:41:02;;;;;;;;;4.00;4.00;;;;;-143.57;100.00;65101.44;5078521;28;45326;-58
2022/06/05 07:43:28;;;;;;;;;5.40;5.40;;;;;-143.57;100.00;65101.44;5078831;27;45430;-56
2022/06/05 07:45:54;;;;;;;;;6.75;6.75;;;;;-143.57;100.00;65101.44;5078193;28;45525;-55
2022/06/05 07:48:19;;;;;;;;;6.50;6.00;;;;;-143.57;100.00;65101.44;5078494;28;45315;-60
2022/06/05 07:56:16;;;;;;;;;8.60;5.20;;;;;-143.57;100.00;65101.44;5078504;27;45396;-55
2022/06/05 07:58:42;;;;;;;;;5.00;4.50;;;;;-143.57;100.00;65101.44;5078298;28;45430;-55
2022/06/05 08:01:07;;;;;;;;;6.00;5.00;;;;;-143.57;100.00;65101.44;5078204;28;45314;-55
2022/06/05 08:03:34;;;;;;;;;4.00;4.00;;;;;-143.57;100.00;65101.44;5077266;28;45154;-55
2022/06/05 08:05:59;;;;;;;;;6.40;6.40;;;;;-143.57;100.00;65101.44;5078082;28;46285;-57
2022/06/05 08:08:25;;;;;;;;;10.00;6.00;;;;;-143.57;100.00;65101.44;5078121;27;45481;-55
2022/06/05 08:10:50;;;;;;;;;7.50;6.00;;;;;-143.57;100.00;65101.44;5078256;28;45347;-55
2022/06/05 08:13:16;;;;;;;;;4.75;4.75;;;;;-143.57;100.00;65101.44;5078561;28;45269;-54
2022/06/05 08:15:45;;;;;;;;;5.25;5.00;;;;;-143.57;100.00;65101.44;5077686;27;45406;-54
2022/06/05 08:18:11;;;;;;;;;5.20;5.20;;;;;-143.57;100.00;65101.44;5077906;27;45437;-55
2022/06/05 08:20:36;;;;;;;;;4.75;3.50;;;;;-143.57;100.00;65101.44;5077984;27;45481;-55
2022/06/05 08:23:02;;;;;;;;;5.00;5.00;;;;;-143.57;100.00;65101.44;5078297;27;45278;-54
2022/06/05 08:25:28;;;;;;;;;5.80;4.00;;;;;-143.57;100.00;65101.44;5077993;27;45227;-55
2022/06/05 08:27:54;;;;;;;;;4.50;4.50;;;;;-143.57;100.00;65101.44;5077844;28;45552;-54
2022/06/05 08:30:19;;;;;;;;;4.20;4.20;;;;;-143.57;100.00;65101.44;5077802;27;45434;-53
2022/06/05 08:32:45;;;;;;;;;5.00;5.00;;;;;-143.57;100.00;65101.44;5078210;28;45586;-54
2022/06/05 08:35:11;;;;;;;;;6.00;5.50;;;;;-143.57;100.00;65101.44;5077565;27;45663;-51
2022/06/05 08:43:24;;;;;;;;;6.20;5.00;;;;;-143.57;100.00;65101.44;5078077;28;45525;-52
2022/06/05 08:45:54;;;;;;;;;7.40;7.20;;;;;-143.57;100.00;65101.44;5077253;28;46425;-53
2022/06/05 08:48:28;;;;;;;;;6.40;6.20;;;;;-143.57;100.00;65101.44;5077622;28;45375;-55
2022/06/05 08:51:00;;;;;;;;;6.20;6.00;;;;;-143.57;100.00;65101.44;5076594;28;45311;-53
2022/06/05 08:53:36;;;;;;;;;5.00;4.00;;;;;-143.57;100.00;65101.44;5077936;28;45318;-54
2022/06/05 08:56:05;;;;;;;;;5.60;5.60;;;;;-143.57;100.00;65101.44;5077489;28;46007;-51
2022/06/05 08:58:32;;;;;;;;;6.00;5.00;;;;;-143.57;100.00;65101.44;5077436;28;45254;-51
2022/06/05 09:01:08;;;;;;;;;4.00;3.80;;;;;-143.57;100.00;65101.44;5077529;28;45286;-51
2022/06/05 09:03:52;;;;;;;;;4.60;4.60;;;;;-143.57;100.00;65101.44;5077758;28;45585;-53
2022/06/05 09:06:29;;;;;;;;;4.60;4.60;;;;;-143.57;100.00;65101.44;5077247;28;45470;-52
2022/06/05 09:08:58;;;;;;;;;7.20;5.60;;;;;-143.57;100.00;65101.44;5077288;28;45264;-53
2022/06/05 09:11:37;;;;;;;;;5.60;4.80;;;;;-143.57;100.00;65101.44;5077390;28;45365;-51
2022/06/05 09:14:15;;;;;;;;;5.80;4.60;;;;;-143.57;100.00;65101.44;5077823;28;45438;-52
2022/06/05 09:16:48;;;;;;;;;5.00;5.00;;;;;-143.57;100.00;65101.44;5076665;28;46450;-52
2022/06/05 09:19:16;;;;;;;;;6.00;5.60;;;;;-143.57;100.00;65101.44;5077210;28;45349;-53
2022/06/05 09:21:58;;;;;;;;;6.00;5.80;;;;;-143.57;100.00;65101.44;5077239;28;45438;-51
2022/06/05 09:24:32;;;;;;;;;9.40;7.40;;;;;-143.57;100.00;65101.44;5077420;28;45501;-52
2022/06/05 09:27:10;;;;;;;;;4.20;4.00;;;;;-143.57;100.00;65101.44;5077129;28;47263;-50
2022/06/05 09:29:46;;;;;;;;;17.40;15.40;;;;;-143.57;100.00;65101.44;5077056;28;45281;-51
2022/06/05 09:32:56;;;;;;;;;10.60;8.40;;;;;-143.57;100.00;65101.44;5077074;27;45410;-49
2022/06/05 09:35:48;;;;;;;;;6.25;6.00;;;;;-143.57;100.00;65101.44;5075261;27;45363;-50
2022/06/05 09:38:22;;;;;;;;;6.00;6.00;;;;;-143.57;100.00;65101.44;5077130;28;47100;-48
2022/06/05 09:40:50;;;;;;;;;9.00;9.00;;;;;-143.57;100.00;65101.44;5077099;28;45329;-49
2022/06/05 09:43:32;;;;;;;;;8.80;8.80;;;;;-143.57;100.00;65101.44;5077080;27;45280;-53
2022/06/05 09:46:22;;;;;;;;;12.50;8.25;;;;;-143.57;100.00;65101.44;5076744;28;45476;-49
2022/06/05 09:48:53;;;;;;;;;9.25;7.25;;;;;-143.57;100.00;65101.44;5076825;28;45561;-52
2022/06/05 09:51:19;;;;;;;;;9.00;7.00;;;;;-143.57;100.00;65101.44;5076831;28;45390;-50
2022/06/05 09:54:31;;;;;;;;;6.20;6.20;;;;;-143.57;100.00;65101.44;5076903;28;45338;-50
2022/06/05 10:00:32;;;;;;;;;8.60;7.80;;;;;-143.57;100.00;65101.44;4994189;28;45712;-50
2022/06/05 10:03:06;;;;;;;;;7.40;7.40;;;;;-143.57;100.00;65101.44;4993848;28;45484;-52
2022/06/05 10:05:37;;;;;;;;;9.40;7.40;;;;;-143.57;100.00;65101.44;4994497;28;45380;-49
2022/06/05 10:08:06;;;;;;;;;12.00;8.00;;;;;-143.57;100.00;65101.44;4994428;28;45447;-56
2022/06/05 10:10:38;;;;;;;;;10.75;9.00;;;;;-143.57;100.00;65101.44;4994101;28;47067;-50
2022/06/05 10:13:43;;;;;;;;;10.80;10.80;;;;;-143.57;100.00;65101.44;4993356;28;45304;-53
2022/06/05 10:16:18;;;;;;;;;8.60;7.60;;;;;-143.57;100.00;65101.44;4993333;28;45666;-50
2022/06/05 10:18:56;;;;;;;;;10.00;8.50;;;;;-143.57;100.00;65101.44;4997562;28;45510;-49
2022/06/05 10:21:24;;;;;;;;;8.25;8.00;;;;;-143.57;100.00;65101.44;4997339;28;46105;-52
2022/06/05 10:23:53;;;;;;;;;10.60;10.40;;;;;-143.57;100.00;65101.44;4997189;28;45433;-50
2022/06/05 10:26:18;;;;;;;;;14.75;12.25;;;;;-143.57;100.00;65101.44;4997464;28;45402;-52
2022/06/05 10:28:45;;;;;;;;;8.25;8.25;;;;;-143.57;100.00;65101.44;4997975;28;45303;-53
2022/06/05 10:31:19;;;;;;;;;11.50;8.00;;;;;-143.57;100.00;65101.44;4997104;28;46124;-51
2022/06/05 10:34:02;;;;;;;;;9.80;9.80;;;;;-143.57;100.00;65101.44;5033332;28;45401;-53
2022/06/05 10:36:49;;;;;;;;;11.00;9.60;;;;;-143.57;100.00;65101.44;5079708;27;45231;-53
2022/06/05 10:39:43;;;;;;;;;8.80;8.60;;;;;-143.57;100.00;65101.44;5079753;27;45376;-51
2022/06/05 10:42:26;;;;;;;;;12.00;12.00;;;;;-143.57;100.00;65101.44;4996696;28;46583;-53
2022/06/05 10:45:10;;;;;;;;;12.80;9.00;;;;;-143.57;100.00;65101.44;4997036;28;45372;-50
2022/06/05 10:47:50;;;;;;;;;10.60;9.00;;;;;-143.57;100.00;65101.44;4996904;28;45460;-52
2022/06/05 10:50:22;;;;;;;;;12.50;11.25;;;;;-143.57;100.00;65101.44;4997259;28;45531;-52
2022/06/05 10:53:09;;;;;;;;;10.60;9.60;;;;;-143.57;100.00;65101.44;4996874;28;46905;-49
2022/06/05 10:55:44;;;;;;;;;12.00;12.00;;;;;-143.57;100.00;65101.44;4996921;28;45460;-51
2022/06/05 10:58:25;;;;;;;;;12.20;12.20;;;;;-143.57;100.00;65101.44;4997133;28;45545;-51
2022/06/05 11:01:35;;;;;;;;;13.50;10.50;;;;;-143.57;100.00;65101.44;4997174;28;45471;-53
2022/06/05 11:04:38;;;;;;;;;11.80;10.00;;;;;-143.57;100.00;65101.44;4991557;28;47077;-51
2022/06/05 11:07:15;;;;;;;;;11.60;11.20;;;;;-143.57;100.00;65101.44;4996737;28;45537;-54
2022/06/05 11:09:58;;;;;;;;;12.00;12.00;;;;;-143.57;100.00;65101.44;4997058;28;45461;-54
2022/06/05 11:15:34;;;;;;;;;10.00;9.80;;;;;-143.57;100.00;65101.44;4996631;28;45899;-53
2022/06/05 11:18:11;;;;;;;;;13.00;10.60;;;;;-143.57;100.00;65101.44;4996402;28;45508;-53
2022/06/05 11:20:41;;;;;;;;;11.00;11.00;;;;;-143.57;100.00;65101.44;5079011;28;45390;-52
2022/06/05 11:23:13;;;;;;;;;12.60;10.00;;;;;-143.57;100.00;65101.44;5079201;28;45323;-53
2022/06/05 11:26:17;;;;;;;;;15.50;11.50;;;;;-143.57;100.00;65101.44;5078556;28;46332;-53
2022/06/05 11:28:57;;;;;;;;;14.00;13.40;;;;;-143.57;100.00;65101.44;5034677;28;45473;-52
2022/06/05 11:31:42;;;;;;;;;14.20;11.60;;;;;-143.57;100.00;65101.44;5035369;28;45377;-54
2022/06/05 11:34:24;;;;;;;;;11.75;9.75;;;;;-143.57;100.00;65101.44;5036300;28;45419;-52
2022/06/05 11:36:52;;;;;;;;;19.75;16.50;;;;;-143.57;100.00;65101.44;5035000;28;45380;-52
2022/06/05 11:39:23;;;;;;;;;14.00;13.20;;;;;-143.57;100.00;65101.44;5035497;28;45429;-64
2022/06/05 11:42:13;;;;;;;;;13.00;10.80;;;;;-143.57;100.00;65101.44;5035816;28;45385;-65
2022/06/05 11:44:43;;;;;;;;;14.75;13.75;;;;;-143.57;100.00;65101.44;5035701;28;45588;-65